sensor_id;sensor_type;location;lat;lon;timestamp;temperature;humidity
18721;DHT22;9489;50.948;3.114;2023-10-13T00:00:34;17.40;99.90
18721;DHT22;9489;50.948;3.114;2023-10-13T00:03:04;17.40;99.90
18721;DHT22;9489;50.948;3.114;2023-10-13T00:05:32;17.40;99.90
18721;DHT22;9489;50.948;3.114;2023-10-13T00:07:59;17.40;99.90
18721;DHT22;9489;50.948;3.114;2023-10-13T00:10:35;17.40;99.90
18721;DHT22;9489;50.948;3.114;2023-10-13T00:13:02;17.40;99.90
18721;DHT22;9489;50.948;3.114;2023-10-13T00:15:45;17.40;99.90
18721;DHT22;9489;50.948;3.114;2023-10-13T00:18:28;17.40;99.90
18721;DHT22;9489;50.948;3.114;2023-10-13T00:20:59;17.40;99.90
18721;DHT22;9489;50.948;3.114;2023-10-13T00:23:24;17.40;99.90
18721;DHT22;9489;50.948;3.114;2023-10-13T00:25:53;17.30;99.90
18721;DHT22;9489;50.948;3.114;2023-10-13T00:28:28;17.30;99.90
18721;DHT22;9489;50.948;3.114;2023-10-13T00:31:01;17.30;99.90
18721;DHT22;9489;50.948;3.114;2023-10-13T00:33:37;17.30;99.90
18721;DHT22;9489;50.948;3.114;2023-10-13T00:36:03;17.30;99.90
18721;DHT22;9489;50.948;3.114;2023-10-13T00:38:30;17.30;99.90
18721;DHT22;9489;50.948;3.114;2023-10-13T00:40:56;17.30;99.90
18721;DHT22;9489;50.948;3.114;2023-10-13T00:43:28;17.30;99.90
18721;DHT22;9489;50.948;3.114;2023-10-13T00:45:58;17.30;99.90
18721;DHT22;9489;50.948;3.114;2023-10-13T00:48:32;17.30;99.90
18721;DHT22;9489;50.948;3.114;2023-10-13T00:51:02;17.30;99.90
18721;DHT22;9489;50.948;3.114;2023-10-13T00:53:29;17.30;99.90
18721;DHT22;9489;50.948;3.114;2023-10-13T00:56:02;17.30;99.90
18721;DHT22;9489;50.948;3.114;2023-10-13T00:58:34;17.30;99.90
18721;DHT22;9489;50.948;3.114;2023-10-13T01:01:01;17.30;99.90
18721;DHT22;9489;50.948;3.114;2023-10-13T01:03:45;17.30;99.90
18721;DHT22;9489;50.948;3.114;2023-10-13T01:06:11;17.20;99.90
18721;DHT22;9489;50.948;3.114;2023-10-13T01:08:38;17.30;99.90
18721;DHT22;9489;50.948;3.114;2023-10-13T01:11:04;17.30;99.90
18721;DHT22;9489;50.948;3.114;2023-10-13T01:13:33;17.30;99.90
18721;DHT22;9489;50.948;3.114;2023-10-13T01:16:02;17.30;99.90
18721;DHT22;9489;50.948;3.114;2023-10-13T01:18:33;17.40;99.90
18721;DHT22;9489;50.948;3.114;2023-10-13T01:21:05;17.30;99.90
18721;DHT22;9489;50.948;3.114;2023-10-13T01:23:31;17.30;99.90
18721;DHT22;9489;50.948;3.114;2023-10-13T01:26:03;17.30;99.90
18721;DHT22;9489;50.948;3.114;2023-10-13T01:28:31;17.30;99.90
18721;DHT22;9489;50.948;3.114;2023-10-13T01:31:12;17.30;99.90
18721;DHT22;9489;50.948;3.114;2023-10-13T01:33:42;17.40;99.90
18721;DHT22;9489;50.948;3.114;2023-10-13T01:36:08;17.40;99.90
18721;DHT22;9489;50.948;3.114;2023-10-13T01:38:34;17.30;99.90
18721;DHT22;9489;50.948;3.114;2023-10-13T01:41:05;17.40;99.90
18721;DHT22;9489;50.948;3.114;2023-10-13T01:43:30;17.40;99.90
18721;DHT22;9489;50.948;3.114;2023-10-13T01:45:56;17.40;99.90
18721;DHT22;9489;50.948;3.114;2023-10-13T01:48:22;17.40;99.90
18721;DHT22;9489;50.948;3.114;2023-10-13T01:50:47;17.30;99.90
18721;DHT22;9489;50.948;3.114;2023-10-13T01:53:17;17.40;99.90
18721;DHT22;9489;50.948;3.114;2023-10-13T01:55:43;17.40;99.90
18721;DHT22;9489;50.948;3.114;2023-10-13T01:58:13;17.30;99.90
18721;DHT22;9489;50.948;3.114;2023-10-13T02:00:46;17.30;99.90
18721;DHT22;9489;50.948;3.114;2023-10-13T02:03:15;17.30;99.90
18721;DHT22;9489;50.948;3.114;2023-10-13T02:05:44;17.30;99.90
18721;DHT22;9489;50.948;3.114;2023-10-13T02:08:14;17.30;99.90
18721;DHT22;9489;50.948;3.114;2023-10-13T02:10:54;17.30;99.90
18721;DHT22;9489;50.948;3.114;2023-10-13T02:13:21;17.40;99.90
18721;DHT22;9489;50.948;3.114;2023-10-13T02:15:49;17.40;99.90
18721;DHT22;9489;50.948;3.114;2023-10-13T02:18:19;17.30;99.90
18721;DHT22;9489;50.948;3.114;2023-10-13T02:21:03;17.40;99.90
18721;DHT22;9489;50.948;3.114;2023-10-13T02:23:30;17.60;99.90
18721;DHT22;9489;50.948;3.114;2023-10-13T02:25:59;17.70;99.90
18721;DHT22;9489;50.948;3.114;2023-10-13T02:28:36;17.70;99.90
18721;DHT22;9489;50.948;3.114;2023-10-13T02:31:02;17.80;99.90
18721;DHT22;9489;50.948;3.114;2023-10-13T02:33:29;17.80;99.90
18721;DHT22;9489;50.948;3.114;2023-10-13T02:36:00;17.90;99.90
18721;DHT22;9489;50.948;3.114;2023-10-13T02:38:29;17.90;99.90
18721;DHT22;9489;50.948;3.114;2023-10-13T02:41:13;18.00;99.90
18721;DHT22;9489;50.948;3.114;2023-10-13T02:43:45;18.00;99.90
18721;DHT22;9489;50.948;3.114;2023-10-13T02:46:11;18.00;99.90
18721;DHT22;9489;50.948;3.114;2023-10-13T02:48:36;18.00;99.90
18721;DHT22;9489;50.948;3.114;2023-10-13T02:51:12;18.10;99.90
18721;DHT22;9489;50.948;3.114;2023-10-13T02:53:42;18.10;99.90
18721;DHT22;9489;50.948;3.114;2023-10-13T02:56:08;18.10;99.90
18721;DHT22;9489;50.948;3.114;2023-10-13T02:58:33;18.10;99.90
18721;DHT22;9489;50.948;3.114;2023-10-13T03:01:09;18.10;99.90
18721;DHT22;9489;50.948;3.114;2023-10-13T03:03:47;18.10;99.90
18721;DHT22;9489;50.948;3.114;2023-10-13T03:06:17;18.10;99.90
18721;DHT22;9489;50.948;3.114;2023-10-13T03:09:09;18.00;99.90
18721;DHT22;9489;50.948;3.114;2023-10-13T03:11:43;18.00;99.90
18721;DHT22;9489;50.948;3.114;2023-10-13T03:14:15;18.10;99.90
18721;DHT22;9489;50.948;3.114;2023-10-13T03:16:55;18.00;99.90
18721;DHT22;9489;50.948;3.114;2023-10-13T03:19:27;18.10;99.90
18721;DHT22;9489;50.948;3.114;2023-10-13T03:21:59;18.00;99.90
18721;DHT22;9489;50.948;3.114;2023-10-13T03:24:35;18.10;99.90
18721;DHT22;9489;50.948;3.114;2023-10-13T03:27:02;18.10;99.90
18721;DHT22;9489;50.948;3.114;2023-10-13T03:29:44;18.10;99.90
18721;DHT22;9489;50.948;3.114;2023-10-13T03:32:11;18.10;99.90
18721;DHT22;9489;50.948;3.114;2023-10-13T03:34:38;18.10;99.90
18721;DHT22;9489;50.948;3.114;2023-10-13T03:37:07;18.00;99.90
18721;DHT22;9489;50.948;3.114;2023-10-13T03:39:44;18.00;99.90
18721;DHT22;9489;50.948;3.114;2023-10-13T03:42:11;18.00;99.90
18721;DHT22;9489;50.948;3.114;2023-10-13T03:44:45;18.00;99.90
18721;DHT22;9489;50.948;3.114;2023-10-13T03:47:12;18.00;99.90
18721;DHT22;9489;50.948;3.114;2023-10-13T03:49:45;18.00;99.90
18721;DHT22;9489;50.948;3.114;2023-10-13T03:52:11;18.00;99.90
18721;DHT22;9489;50.948;3.114;2023-10-13T03:54:39;18.00;99.90
18721;DHT22;9489;50.948;3.114;2023-10-13T03:57:07;18.00;99.90
18721;DHT22;9489;50.948;3.114;2023-10-13T03:59:38;18.00;99.90
18721;DHT22;9489;50.948;3.114;2023-10-13T04:02:03;18.00;99.90
18721;DHT22;9489;50.948;3.114;2023-10-13T04:04:37;18.00;99.90
18721;DHT22;9489;50.948;3.114;2023-10-13T04:07:19;18.00;99.90
18721;DHT22;9489;50.948;3.114;2023-10-13T04:10:03;18.00;99.90
18721;DHT22;9489;50.948;3.114;2023-10-13T04:12:48;18.00;99.90
18721;DHT22;9489;50.948;3.114;2023-10-13T04:15:32;18.00;99.90
18721;DHT22;9489;50.948;3.114;2023-10-13T04:18:06;18.00;99.90
18721;DHT22;9489;50.948;3.114;2023-10-13T04:20:44;17.90;99.90
18721;DHT22;9489;50.948;3.114;2023-10-13T04:23:12;17.90;99.90
18721;DHT22;9489;50.948;3.114;2023-10-13T04:25:43;17.90;99.90
18721;DHT22;9489;50.948;3.114;2023-10-13T04:28:13;17.90;99.90
18721;DHT22;9489;50.948;3.114;2023-10-13T04:30:44;17.80;99.90
18721;DHT22;9489;50.948;3.114;2023-10-13T04:36:10;17.80;99.90
18721;DHT22;9489;50.948;3.114;2023-10-13T04:38:47;17.90;99.90
18721;DHT22;9489;50.948;3.114;2023-10-13T04:41:27;17.80;99.90
18721;DHT22;9489;50.948;3.114;2023-10-13T04:44:23;17.90;99.90
18721;DHT22;9489;50.948;3.114;2023-10-13T04:46:56;17.90;99.90
18721;DHT22;9489;50.948;3.114;2023-10-13T04:49:28;17.80;99.90
18721;DHT22;9489;50.948;3.114;2023-10-13T04:52:02;17.90;99.90
18721;DHT22;9489;50.948;3.114;2023-10-13T04:54:38;17.90;99.90
18721;DHT22;9489;50.948;3.114;2023-10-13T04:57:24;17.90;99.90
18721;DHT22;9489;50.948;3.114;2023-10-13T05:00:09;18.00;99.90
18721;DHT22;9489;50.948;3.114;2023-10-13T05:02:57;18.00;99.90
18721;DHT22;9489;50.948;3.114;2023-10-13T05:05:26;18.00;99.90
18721;DHT22;9489;50.948;3.114;2023-10-13T05:08:01;18.00;99.90
18721;DHT22;9489;50.948;3.114;2023-10-13T05:10:45;18.00;99.90
18721;DHT22;9489;50.948;3.114;2023-10-13T05:13:31;18.10;99.90
18721;DHT22;9489;50.948;3.114;2023-10-13T05:16:15;18.10;99.90
18721;DHT22;9489;50.948;3.114;2023-10-13T05:18:59;18.10;99.90
18721;DHT22;9489;50.948;3.114;2023-10-13T05:21:44;18.10;99.90
18721;DHT22;9489;50.948;3.114;2023-10-13T05:24:29;18.10;99.90
18721;DHT22;9489;50.948;3.114;2023-10-13T05:27:13;18.10;99.90
18721;DHT22;9489;50.948;3.114;2023-10-13T05:29:57;18.10;99.90
18721;DHT22;9489;50.948;3.114;2023-10-13T05:32:41;18.20;99.90
18721;DHT22;9489;50.948;3.114;2023-10-13T05:35:26;18.20;99.90
18721;DHT22;9489;50.948;3.114;2023-10-13T05:38:10;18.20;99.90
18721;DHT22;9489;50.948;3.114;2023-10-13T05:41:01;18.20;99.90
18721;DHT22;9489;50.948;3.114;2023-10-13T05:43:46;18.10;99.90
18721;DHT22;9489;50.948;3.114;2023-10-13T05:46:31;18.10;99.90
18721;DHT22;9489;50.948;3.114;2023-10-13T05:49:04;18.10;99.90
18721;DHT22;9489;50.948;3.114;2023-10-13T05:51:43;18.10;99.90
18721;DHT22;9489;50.948;3.114;2023-10-13T05:54:18;18.10;99.90
18721;DHT22;9489;50.948;3.114;2023-10-13T05:56:50;18.20;99.90
18721;DHT22;9489;50.948;3.114;2023-10-13T05:59:36;18.20;99.90
18721;DHT22;9489;50.948;3.114;2023-10-13T06:02:21;18.20;99.90
18721;DHT22;9489;50.948;3.114;2023-10-13T06:05:08;18.20;99.90
18721;DHT22;9489;50.948;3.114;2023-10-13T06:07:53;18.30;99.90
18721;DHT22;9489;50.948;3.114;2023-10-13T06:10:38;18.30;99.90
18721;DHT22;9489;50.948;3.114;2023-10-13T06:13:23;18.30;99.90
18721;DHT22;9489;50.948;3.114;2023-10-13T06:16:15;18.40;99.90
18721;DHT22;9489;50.948;3.114;2023-10-13T06:19:00;18.40;99.90
18721;DHT22;9489;50.948;3.114;2023-10-13T06:21:44;18.40;99.90
18721;DHT22;9489;50.948;3.114;2023-10-13T06:24:29;18.40;99.90
18721;DHT22;9489;50.948;3.114;2023-10-13T06:27:14;18.50;99.90
18721;DHT22;9489;50.948;3.114;2023-10-13T06:29:59;18.50;99.90
18721;DHT22;9489;50.948;3.114;2023-10-13T06:32:26;18.50;99.90
18721;DHT22;9489;50.948;3.114;2023-10-13T06:34:55;18.60;99.90
18721;DHT22;9489;50.948;3.114;2023-10-13T06:37:30;18.60;99.90
18721;DHT22;9489;50.948;3.114;2023-10-13T06:39:59;18.60;99.90
18721;DHT22;9489;50.948;3.114;2023-10-13T06:42:31;18.60;99.90
18721;DHT22;9489;50.948;3.114;2023-10-13T06:45:01;18.60;99.90
18721;DHT22;9489;50.948;3.114;2023-10-13T06:47:29;18.60;99.90
18721;DHT22;9489;50.948;3.114;2023-10-13T06:49:54;18.70;99.90
18721;DHT22;9489;50.948;3.114;2023-10-13T06:52:22;18.70;99.90
18721;DHT22;9489;50.948;3.114;2023-10-13T06:54:51;18.70;99.90
18721;DHT22;9489;50.948;3.114;2023-10-13T06:57:19;18.80;99.90
18721;DHT22;9489;50.948;3.114;2023-10-13T06:59:48;18.80;99.90
18721;DHT22;9489;50.948;3.114;2023-10-13T07:02:14;18.80;99.90
18721;DHT22;9489;50.948;3.114;2023-10-13T07:04:48;18.90;99.90
18721;DHT22;9489;50.948;3.114;2023-10-13T07:07:23;18.90;99.90
18721;DHT22;9489;50.948;3.114;2023-10-13T07:09:49;19.00;99.90
18721;DHT22;9489;50.948;3.114;2023-10-13T07:12:21;19.00;99.90
18721;DHT22;9489;50.948;3.114;2023-10-13T07:14:53;19.10;99.90
18721;DHT22;9489;50.948;3.114;2023-10-13T07:17:39;19.10;99.90
18721;DHT22;9489;50.948;3.114;2023-10-13T07:20:07;19.10;99.90
18721;DHT22;9489;50.948;3.114;2023-10-13T07:22:49;19.20;99.90
18721;DHT22;9489;50.948;3.114;2023-10-13T07:25:26;19.20;99.90
18721;DHT22;9489;50.948;3.114;2023-10-13T07:27:52;19.20;99.90
18721;DHT22;9489;50.948;3.114;2023-10-13T07:30:19;19.20;99.90
18721;DHT22;9489;50.948;3.114;2023-10-13T07:32:46;19.30;99.90
18721;DHT22;9489;50.948;3.114;2023-10-13T07:35:16;19.30;99.90
18721;DHT22;9489;50.948;3.114;2023-10-13T07:37:43;19.40;99.90
18721;DHT22;9489;50.948;3.114;2023-10-13T07:40:10;19.40;99.90
18721;DHT22;9489;50.948;3.114;2023-10-13T07:42:51;19.50;99.90
18721;DHT22;9489;50.948;3.114;2023-10-13T07:45:17;19.60;99.90
18721;DHT22;9489;50.948;3.114;2023-10-13T07:47:50;19.60;99.90
18721;DHT22;9489;50.948;3.114;2023-10-13T07:50:16;19.70;99.90
18721;DHT22;9489;50.948;3.114;2023-10-13T07:52:50;19.70;99.90
18721;DHT22;9489;50.948;3.114;2023-10-13T07:55:33;19.80;99.90
18721;DHT22;9489;50.948;3.114;2023-10-13T07:58:02;19.90;99.90
18721;DHT22;9489;50.948;3.114;2023-10-13T08:00:33;19.90;99.90
18721;DHT22;9489;50.948;3.114;2023-10-13T08:03:11;20.00;99.90
18721;DHT22;9489;50.948;3.114;2023-10-13T08:06:03;20.00;99.90
18721;DHT22;9489;50.948;3.114;2023-10-13T08:08:29;20.10;99.90
18721;DHT22;9489;50.948;3.114;2023-10-13T08:13:58;20.10;99.90
18721;DHT22;9489;50.948;3.114;2023-10-13T08:16:44;20.20;99.90
18721;DHT22;9489;50.948;3.114;2023-10-13T08:19:21;20.30;99.90
18721;DHT22;9489;50.948;3.114;2023-10-13T08:21:55;20.20;99.90
18721;DHT22;9489;50.948;3.114;2023-10-13T08:24:48;20.20;99.90
18721;DHT22;9489;50.948;3.114;2023-10-13T08:27:18;20.20;99.90
18721;DHT22;9489;50.948;3.114;2023-10-13T08:29:59;20.10;99.90
18721;DHT22;9489;50.948;3.114;2023-10-13T08:32:26;20.10;99.90
18721;DHT22;9489;50.948;3.114;2023-10-13T08:34:56;20.10;99.90
18721;DHT22;9489;50.948;3.114;2023-10-13T08:37:22;20.00;99.90
18721;DHT22;9489;50.948;3.114;2023-10-13T08:39:58;20.00;99.90
18721;DHT22;9489;50.948;3.114;2023-10-13T08:42:37;20.10;99.90
18721;DHT22;9489;50.948;3.114;2023-10-13T08:45:06;20.10;99.90
18721;DHT22;9489;50.948;3.114;2023-10-13T08:47:56;20.10;99.90
18721;DHT22;9489;50.948;3.114;2023-10-13T08:50:45;20.00;99.90
18721;DHT22;9489;50.948;3.114;2023-10-13T08:56:06;20.10;99.90
18721;DHT22;9489;50.948;3.114;2023-10-13T08:58:38;20.10;99.90
18721;DHT22;9489;50.948;3.114;2023-10-13T09:01:30;20.10;99.90
18721;DHT22;9489;50.948;3.114;2023-10-13T09:04:16;20.10;99.90
18721;DHT22;9489;50.948;3.114;2023-10-13T09:06:50;20.20;99.90
18721;DHT22;9489;50.948;3.114;2023-10-13T09:09:28;20.20;99.90
18721;DHT22;9489;50.948;3.114;2023-10-13T09:12:39;20.30;99.90
18721;DHT22;9489;50.948;3.114;2023-10-13T09:15:09;20.30;99.90
18721;DHT22;9489;50.948;3.114;2023-10-13T09:17:48;20.40;99.90
18721;DHT22;9489;50.948;3.114;2023-10-13T09:20:28;20.40;99.90
18721;DHT22;9489;50.948;3.114;2023-10-13T09:23:15;20.40;99.90
18721;DHT22;9489;50.948;3.114;2023-10-13T09:25:51;20.50;99.90
18721;DHT22;9489;50.948;3.114;2023-10-13T09:28:27;20.50;99.90
18721;DHT22;9489;50.948;3.114;2023-10-13T09:30:55;20.50;99.90
18721;DHT22;9489;50.948;3.114;2023-10-13T09:33:22;20.60;99.90
18721;DHT22;9489;50.948;3.114;2023-10-13T09:36:15;20.60;99.90
18721;DHT22;9489;50.948;3.114;2023-10-13T09:38:43;20.60;99.90
18721;DHT22;9489;50.948;3.114;2023-10-13T09:41:37;20.70;99.90
18721;DHT22;9489;50.948;3.114;2023-10-13T09:44:03;20.60;99.90
18721;DHT22;9489;50.948;3.114;2023-10-13T09:46:30;20.60;99.90
18721;DHT22;9489;50.948;3.114;2023-10-13T09:48:59;20.60;99.90
18721;DHT22;9489;50.948;3.114;2023-10-13T09:51:34;20.50;99.90
18721;DHT22;9489;50.948;3.114;2023-10-13T09:54:22;20.50;99.90
18721;DHT22;9489;50.948;3.114;2023-10-13T09:56:58;20.50;99.90
18721;DHT22;9489;50.948;3.114;2023-10-13T09:59:43;20.40;99.90
18721;DHT22;9489;50.948;3.114;2023-10-13T10:02:18;20.40;99.90
18721;DHT22;9489;50.948;3.114;2023-10-13T10:04:55;20.40;99.90
18721;DHT22;9489;50.948;3.114;2023-10-13T10:07:36;20.50;99.90
18721;DHT22;9489;50.948;3.114;2023-10-13T10:10:05;20.60;99.90
18721;DHT22;9489;50.948;3.114;2023-10-13T10:12:54;20.60;99.90
18721;DHT22;9489;50.948;3.114;2023-10-13T10:15:36;20.70;99.90
18721;DHT22;9489;50.948;3.114;2023-10-13T10:18:27;20.70;99.90
18721;DHT22;9489;50.948;3.114;2023-10-13T10:21:06;20.70;99.90
18721;DHT22;9489;50.948;3.114;2023-10-13T10:23:36;20.80;99.90
18721;DHT22;9489;50.948;3.114;2023-10-13T10:26:15;20.80;99.90
18721;DHT22;9489;50.948;3.114;2023-10-13T10:28:46;20.90;99.90
18721;DHT22;9489;50.948;3.114;2023-10-13T10:31:13;20.90;99.90
18721;DHT22;9489;50.948;3.114;2023-10-13T10:33:40;21.10;99.90
18721;DHT22;9489;50.948;3.114;2023-10-13T10:36:07;21.10;99.90
18721;DHT22;9489;50.948;3.114;2023-10-13T10:38:52;21.10;99.90
18721;DHT22;9489;50.948;3.114;2023-10-13T10:41:26;21.10;99.90
18721;DHT22;9489;50.948;3.114;2023-10-13T10:43:55;21.10;99.90
18721;DHT22;9489;50.948;3.114;2023-10-13T10:46:28;21.20;99.90
18721;DHT22;9489;50.948;3.114;2023-10-13T10:48:57;21.20;99.90
18721;DHT22;9489;50.948;3.114;2023-10-13T10:51:27;21.30;99.90
18721;DHT22;9489;50.948;3.114;2023-10-13T10:54:00;21.40;99.90
18721;DHT22;9489;50.948;3.114;2023-10-13T10:56:46;21.50;99.90
18721;DHT22;9489;50.948;3.114;2023-10-13T10:59:19;21.50;99.90
18721;DHT22;9489;50.948;3.114;2023-10-13T11:01:46;21.60;99.90
18721;DHT22;9489;50.948;3.114;2023-10-13T11:04:18;21.80;99.90
18721;DHT22;9489;50.948;3.114;2023-10-13T11:06:54;21.90;99.90
18721;DHT22;9489;50.948;3.114;2023-10-13T11:09:28;22.00;99.90
18721;DHT22;9489;50.948;3.114;2023-10-13T11:15:05;22.10;99.90
18721;DHT22;9489;50.948;3.114;2023-10-13T11:17:39;22.20;99.90
18721;DHT22;9489;50.948;3.114;2023-10-13T11:20:16;22.10;99.90
18721;DHT22;9489;50.948;3.114;2023-10-13T11:22:49;22.10;99.90
18721;DHT22;9489;50.948;3.114;2023-10-13T11:25:33;22.10;99.90
18721;DHT22;9489;50.948;3.114;2023-10-13T11:28:13;22.10;99.90
18721;DHT22;9489;50.948;3.114;2023-10-13T11:31:05;22.10;99.90
18721;DHT22;9489;50.948;3.114;2023-10-13T11:33:44;22.10;99.90
18721;DHT22;9489;50.948;3.114;2023-10-13T11:36:13;22.10;99.90
18721;DHT22;9489;50.948;3.114;2023-10-13T11:38:50;22.20;99.90
18721;DHT22;9489;50.948;3.114;2023-10-13T11:41:23;22.30;99.90
18721;DHT22;9489;50.948;3.114;2023-10-13T11:43:50;22.40;99.90
18721;DHT22;9489;50.948;3.114;2023-10-13T11:46:24;22.40;99.90
18721;DHT22;9489;50.948;3.114;2023-10-13T11:51:50;22.50;99.90
18721;DHT22;9489;50.948;3.114;2023-10-13T11:54:17;22.60;99.90
18721;DHT22;9489;50.948;3.114;2023-10-13T11:56:47;22.70;99.90
18721;DHT22;9489;50.948;3.114;2023-10-13T11:59:13;22.70;99.90
18721;DHT22;9489;50.948;3.114;2023-10-13T12:01:46;22.60;99.90
18721;DHT22;9489;50.948;3.114;2023-10-13T12:04:31;22.60;99.90
18721;DHT22;9489;50.948;3.114;2023-10-13T12:07:15;22.50;99.90
18721;DHT22;9489;50.948;3.114;2023-10-13T12:09:42;22.40;99.90
18721;DHT22;9489;50.948;3.114;2023-10-13T12:12:17;22.30;99.90
18721;DHT22;9489;50.948;3.114;2023-10-13T12:14:43;22.30;99.90
18721;DHT22;9489;50.948;3.114;2023-10-13T12:17:28;22.20;99.90
18721;DHT22;9489;50.948;3.114;2023-10-13T12:19:57;22.10;99.90
18721;DHT22;9489;50.948;3.114;2023-10-13T12:22:24;22.00;99.90
18721;DHT22;9489;50.948;3.114;2023-10-13T12:25:10;21.90;99.90
18721;DHT22;9489;50.948;3.114;2023-10-13T12:28:10;21.90;99.90
18721;DHT22;9489;50.948;3.114;2023-10-13T12:30:44;21.80;99.90
18721;DHT22;9489;50.948;3.114;2023-10-13T12:33:18;21.80;99.90
18721;DHT22;9489;50.948;3.114;2023-10-13T12:36:00;21.70;99.90
18721;DHT22;9489;50.948;3.114;2023-10-13T12:38:41;21.70;99.90
18721;DHT22;9489;50.948;3.114;2023-10-13T12:41:13;21.70;99.90
18721;DHT22;9489;50.948;3.114;2023-10-13T12:43:57;21.60;99.90
18721;DHT22;9489;50.948;3.114;2023-10-13T12:46:41;21.60;99.90
18721;DHT22;9489;50.948;3.114;2023-10-13T12:49:25;21.60;99.90
18721;DHT22;9489;50.948;3.114;2023-10-13T12:52:10;21.60;99.90
18721;DHT22;9489;50.948;3.114;2023-10-13T12:54:46;21.60;99.90
18721;DHT22;9489;50.948;3.114;2023-10-13T12:57:16;21.70;99.90
18721;DHT22;9489;50.948;3.114;2023-10-13T12:59:42;21.70;99.90
18721;DHT22;9489;50.948;3.114;2023-10-13T13:02:08;21.70;99.90
18721;DHT22;9489;50.948;3.114;2023-10-13T13:04:41;21.80;99.90
18721;DHT22;9489;50.948;3.114;2023-10-13T13:07:10;21.80;99.90
18721;DHT22;9489;50.948;3.114;2023-10-13T13:09:40;21.80;99.90
18721;DHT22;9489;50.948;3.114;2023-10-13T13:12:06;21.80;99.90
18721;DHT22;9489;50.948;3.114;2023-10-13T13:14:32;21.80;99.90
18721;DHT22;9489;50.948;3.114;2023-10-13T13:17:02;21.90;99.90
18721;DHT22;9489;50.948;3.114;2023-10-13T13:19:35;21.90;99.90
18721;DHT22;9489;50.948;3.114;2023-10-13T13:22:08;21.90;99.90
18721;DHT22;9489;50.948;3.114;2023-10-13T13:24:42;21.90;99.90
18721;DHT22;9489;50.948;3.114;2023-10-13T13:27:14;22.00;99.90
18721;DHT22;9489;50.948;3.114;2023-10-13T13:29:44;22.00;99.90
18721;DHT22;9489;50.948;3.114;2023-10-13T13:32:10;22.00;99.90
18721;DHT22;9489;50.948;3.114;2023-10-13T13:34:52;22.00;99.90
18721;DHT22;9489;50.948;3.114;2023-10-13T13:37:30;22.00;99.90
18721;DHT22;9489;50.948;3.114;2023-10-13T13:39:56;22.00;99.90
18721;DHT22;9489;50.948;3.114;2023-10-13T13:42:39;22.00;99.90
18721;DHT22;9489;50.948;3.114;2023-10-13T13:45:15;22.00;99.90
18721;DHT22;9489;50.948;3.114;2023-10-13T13:47:51;21.90;99.90
18721;DHT22;9489;50.948;3.114;2023-10-13T13:50:25;21.90;99.90
18721;DHT22;9489;50.948;3.114;2023-10-13T13:52:58;22.00;99.90
18721;DHT22;9489;50.948;3.114;2023-10-13T13:55:24;22.00;99.90
18721;DHT22;9489;50.948;3.114;2023-10-13T13:57:56;22.00;99.90
18721;DHT22;9489;50.948;3.114;2023-10-13T14:00:21;22.00;99.90
18721;DHT22;9489;50.948;3.114;2023-10-13T14:03:06;22.00;99.90
18721;DHT22;9489;50.948;3.114;2023-10-13T14:05:43;22.00;99.90
18721;DHT22;9489;50.948;3.114;2023-10-13T14:08:09;22.00;99.90
18721;DHT22;9489;50.948;3.114;2023-10-13T14:10:40;22.10;99.90
18721;DHT22;9489;50.948;3.114;2023-10-13T14:13:24;22.10;99.90
18721;DHT22;9489;50.948;3.114;2023-10-13T14:16:09;22.10;99.90
18721;DHT22;9489;50.948;3.114;2023-10-13T14:18:45;22.10;99.90
18721;DHT22;9489;50.948;3.114;2023-10-13T14:21:11;22.10;99.90
18721;DHT22;9489;50.948;3.114;2023-10-13T14:23:52;22.10;99.90
18721;DHT22;9489;50.948;3.114;2023-10-13T14:26:19;22.10;99.90
18721;DHT22;9489;50.948;3.114;2023-10-13T14:28:49;22.00;99.90
18721;DHT22;9489;50.948;3.114;2023-10-13T14:31:27;21.90;99.90
18721;DHT22;9489;50.948;3.114;2023-10-13T14:33:52;21.90;99.90
18721;DHT22;9489;50.948;3.114;2023-10-13T14:36:19;21.90;99.90
18721;DHT22;9489;50.948;3.114;2023-10-13T14:38:47;21.80;99.90
18721;DHT22;9489;50.948;3.114;2023-10-13T14:41:18;21.70;99.90
18721;DHT22;9489;50.948;3.114;2023-10-13T14:43:44;21.70;99.90
18721;DHT22;9489;50.948;3.114;2023-10-13T14:46:17;21.70;99.90
18721;DHT22;9489;50.948;3.114;2023-10-13T14:48:43;21.60;99.90
18721;DHT22;9489;50.948;3.114;2023-10-13T14:51:12;21.60;99.90
18721;DHT22;9489;50.948;3.114;2023-10-13T14:53:44;21.50;99.90
18721;DHT22;9489;50.948;3.114;2023-10-13T14:56:11;21.50;99.90
18721;DHT22;9489;50.948;3.114;2023-10-13T14:58:38;21.50;99.90
18721;DHT22;9489;50.948;3.114;2023-10-13T15:01:14;21.50;99.90
18721;DHT22;9489;50.948;3.114;2023-10-13T15:03:47;21.50;99.90
18721;DHT22;9489;50.948;3.114;2023-10-13T15:06:19;21.60;99.90
18721;DHT22;9489;50.948;3.114;2023-10-13T15:08:52;21.50;99.90
18721;DHT22;9489;50.948;3.114;2023-10-13T15:11:20;21.50;99.90
18721;DHT22;9489;50.948;3.114;2023-10-13T15:13:47;21.50;99.90
18721;DHT22;9489;50.948;3.114;2023-10-13T15:16:20;21.40;99.90
18721;DHT22;9489;50.948;3.114;2023-10-13T15:18:50;21.40;99.90
18721;DHT22;9489;50.948;3.114;2023-10-13T15:21:20;21.40;99.90
18721;DHT22;9489;50.948;3.114;2023-10-13T15:23:52;21.30;99.90
18721;DHT22;9489;50.948;3.114;2023-10-13T15:26:20;21.30;99.90
18721;DHT22;9489;50.948;3.114;2023-10-13T15:28:49;21.30;99.90
18721;DHT22;9489;50.948;3.114;2023-10-13T15:31:15;21.30;99.90
18721;DHT22;9489;50.948;3.114;2023-10-13T15:34:01;21.30;99.90
18721;DHT22;9489;50.948;3.114;2023-10-13T15:36:33;21.30;99.90
18721;DHT22;9489;50.948;3.114;2023-10-13T15:38:59;21.20;99.90
18721;DHT22;9489;50.948;3.114;2023-10-13T15:41:27;21.20;99.90
18721;DHT22;9489;50.948;3.114;2023-10-13T15:43:54;21.10;99.90
18721;DHT22;9489;50.948;3.114;2023-10-13T15:46:21;21.10;99.90
18721;DHT22;9489;50.948;3.114;2023-10-13T15:48:51;21.00;99.90
18721;DHT22;9489;50.948;3.114;2023-10-13T15:51:17;21.00;99.90
18721;DHT22;9489;50.948;3.114;2023-10-13T15:53:43;21.00;99.90
18721;DHT22;9489;50.948;3.114;2023-10-13T15:56:11;20.90;99.90
18721;DHT22;9489;50.948;3.114;2023-10-13T15:58:48;20.80;99.90
18721;DHT22;9489;50.948;3.114;2023-10-13T16:01:15;20.80;99.90
18721;DHT22;9489;50.948;3.114;2023-10-13T16:03:45;20.70;99.90
18721;DHT22;9489;50.948;3.114;2023-10-13T16:06:17;20.60;99.90
18721;DHT22;9489;50.948;3.114;2023-10-13T16:08:43;20.50;99.90
18721;DHT22;9489;50.948;3.114;2023-10-13T16:11:13;20.40;99.90
18721;DHT22;9489;50.948;3.114;2023-10-13T16:13:42;20.20;99.90
18721;DHT22;9489;50.948;3.114;2023-10-13T16:16:15;20.10;99.90
18721;DHT22;9489;50.948;3.114;2023-10-13T16:18:45;20.00;99.90
18721;DHT22;9489;50.948;3.114;2023-10-13T16:21:13;19.90;99.90
18721;DHT22;9489;50.948;3.114;2023-10-13T16:23:43;19.80;99.90
18721;DHT22;9489;50.948;3.114;2023-10-13T16:26:11;19.70;99.90
18721;DHT22;9489;50.948;3.114;2023-10-13T16:28:38;19.70;99.90
18721;DHT22;9489;50.948;3.114;2023-10-13T16:31:07;19.60;99.90
18721;DHT22;9489;50.948;3.114;2023-10-13T16:33:36;19.60;99.90
18721;DHT22;9489;50.948;3.114;2023-10-13T16:36:03;19.60;99.90
18721;DHT22;9489;50.948;3.114;2023-10-13T16:38:35;19.50;99.90
18721;DHT22;9489;50.948;3.114;2023-10-13T16:41:02;19.40;99.90